createdAt,value
2022-12-31T00:02:14.393Z,0.60
2022-12-31T00:04:40.919Z,1.20
2022-12-31T00:07:07.419Z,2.78
2022-12-31T00:09:33.831Z,1.33
2022-12-31T00:12:00.288Z,1.50
2022-12-31T00:14:26.682Z,2.20
2022-12-31T00:16:53.098Z,2.28
2022-12-31T00:19:19.495Z,1.05
2022-12-31T00:21:46.024Z,0.90
2022-12-31T00:24:12.946Z,2.60
2022-12-31T00:26:39.370Z,2.45
2022-12-31T00:29:05.821Z,1.85
2022-12-31T00:31:35.045Z,2.13
2022-12-31T00:34:02.213Z,4.35
2022-12-31T00:36:37.294Z,2.90
2022-12-31T00:39:06.371Z,4.30
2022-12-31T00:41:33.117Z,1.90
2022-12-31T00:43:59.861Z,2.13
2022-12-31T00:46:26.789Z,1.13
2022-12-31T00:48:53.666Z,0.70
2022-12-31T00:51:22.628Z,0.52
2022-12-31T00:53:49.706Z,0.45
2022-12-31T00:56:19.347Z,0.40
2022-12-31T00:58:46.591Z,0.50
2022-12-31T01:01:17.173Z,1.67
2022-12-31T01:03:44.022Z,1.40
2022-12-31T01:06:11.008Z,0.98
2022-12-31T01:08:37.880Z,0.63
2022-12-31T01:11:21.994Z,0.50
2022-12-31T01:13:52.502Z,0.63
2022-12-31T01:16:22.442Z,0.50
2022-12-31T01:18:50.009Z,0.70
2022-12-31T01:21:17.317Z,0.50
2022-12-31T01:23:44.664Z,0.60
2022-12-31T01:26:13.125Z,0.50
2022-12-31T01:28:40.021Z,0.40
2022-12-31T01:31:12.778Z,0.40
2022-12-31T01:33:40.196Z,0.40
2022-12-31T01:36:25.041Z,0.32
2022-12-31T01:38:52.884Z,0.30
2022-12-31T01:41:23.330Z,0.20
2022-12-31T01:43:56.190Z,0.40
2022-12-31T01:46:43.928Z,0.25
2022-12-31T01:49:21.336Z,0.20
2022-12-31T01:52:00.343Z,0.30
2022-12-31T01:54:29.782Z,0.20
2022-12-31T01:56:56.896Z,0.20
2022-12-31T01:59:26.313Z,0.20
2022-12-31T02:01:53.293Z,0.30
2022-12-31T02:04:23.538Z,0.20
2022-12-31T02:07:09.581Z,0.30
2022-12-31T02:09:38.383Z,0.10
2022-12-31T02:12:06.232Z,0.20
2022-12-31T02:14:40.410Z,0.20
2022-12-31T02:17:40.816Z,0.17
2022-12-31T02:20:36.364Z,0.40
2022-12-31T02:23:14.665Z,0.20
2022-12-31T02:26:15.098Z,0.20
2022-12-31T02:29:17.241Z,0.17
2022-12-31T02:31:50.533Z,0.13
2022-12-31T02:34:32.532Z,0.20
2022-12-31T02:37:03.171Z,0.20
2022-12-31T02:39:31.855Z,0.30
2022-12-31T02:41:59.920Z,0.20
2022-12-31T02:44:26.257Z,0.20
2022-12-31T02:47:08.938Z,0.20
2022-12-31T02:49:53.591Z,0.30
2022-12-31T02:52:48.150Z,0.20
2022-12-31T02:55:23.458Z,0.20
2022-12-31T02:58:01.896Z,0.20
2022-12-31T03:00:49.935Z,0.30
2022-12-31T03:03:18.329Z,0.38
2022-12-31T03:05:46.481Z,0.25
2022-12-31T03:08:21.077Z,0.30
2022-12-31T03:10:47.452Z,0.20
2022-12-31T03:13:13.831Z,0.28
2022-12-31T03:15:40.203Z,0.30
2022-12-31T03:18:12.955Z,0.20
2022-12-31T03:21:07.253Z,0.55
2022-12-31T03:23:37.565Z,0.30
2022-12-31T03:26:11.873Z,0.28
2022-12-31T03:28:41.272Z,0.22
2022-12-31T03:31:08.266Z,0.32
2022-12-31T03:33:40.460Z,0.28
2022-12-31T03:36:13.261Z,0.20
2022-12-31T03:38:40.094Z,0.30
2022-12-31T03:41:09.121Z,0.30
2022-12-31T03:43:35.801Z,0.30
2022-12-31T03:46:02.306Z,0.40
2022-12-31T03:48:28.800Z,0.20
2022-12-31T03:50:55.465Z,0.43
2022-12-31T03:53:21.993Z,0.40
2022-12-31T03:55:54.808Z,0.30
2022-12-31T03:58:22.115Z,0.50
2022-12-31T04:00:49.207Z,0.40
2022-12-31T04:03:15.776Z,0.30
2022-12-31T04:05:42.185Z,0.40
2022-12-31T04:08:08.602Z,0.40
2022-12-31T04:10:35.022Z,0.45
2022-12-31T04:13:04.254Z,0.40
2022-12-31T04:15:31.015Z,0.50
2022-12-31T04:17:57.405Z,0.50
2022-12-31T04:20:24.952Z,0.40
2022-12-31T04:22:51.344Z,0.40
2022-12-31T04:25:17.735Z,0.40
2022-12-31T04:27:44.148Z,0.30
2022-12-31T04:30:12.543Z,0.40
2022-12-31T04:32:39.204Z,0.30
2022-12-31T04:35:06.246Z,0.40
2022-12-31T04:37:32.628Z,0.50
2022-12-31T04:40:05.166Z,0.60
2022-12-31T04:44:58.864Z,0.50
2022-12-31T04:47:25.276Z,0.43
2022-12-31T04:49:51.724Z,0.45
2022-12-31T04:52:18.096Z,0.30
2022-12-31T04:54:44.474Z,0.38
2022-12-31T04:57:10.851Z,0.20
2022-12-31T04:59:37.341Z,0.50
2022-12-31T05:02:03.986Z,0.40
2022-12-31T05:04:30.573Z,0.38
2022-12-31T05:06:56.965Z,0.55
2022-12-31T05:09:27.284Z,0.40
2022-12-31T05:11:53.780Z,0.20
2022-12-31T05:14:20.329Z,0.30
2022-12-31T05:16:46.813Z,0.35
2022-12-31T05:19:13.237Z,0.40
2022-12-31T05:21:39.686Z,0.30
2022-12-31T05:24:06.436Z,0.40
2022-12-31T05:26:32.818Z,0.85
2022-12-31T05:29:00.331Z,0.30
2022-12-31T05:31:26.763Z,0.60
2022-12-31T05:33:53.549Z,0.40
2022-12-31T05:36:19.926Z,0.50
2022-12-31T05:38:46.355Z,0.63
2022-12-31T05:41:12.730Z,0.47
2022-12-31T05:43:39.131Z,0.50
2022-12-31T05:46:05.680Z,0.50
2022-12-31T05:48:32.229Z,0.40
2022-12-31T05:50:58.816Z,0.68
2022-12-31T05:53:25.241Z,0.68
2022-12-31T05:55:51.747Z,0.43
2022-12-31T05:58:18.197Z,0.57
2022-12-31T06:00:44.776Z,0.45
2022-12-31T06:03:11.563Z,0.60
2022-12-31T06:05:42.665Z,0.40
2022-12-31T06:08:10.886Z,0.57
2022-12-31T06:10:38.772Z,0.50
2022-12-31T06:13:05.355Z,0.50
2022-12-31T06:15:32.261Z,0.55
2022-12-31T06:17:58.721Z,0.40
2022-12-31T06:20:25.130Z,0.40
2022-12-31T06:22:51.552Z,0.90
2022-12-31T06:25:18.249Z,0.43
2022-12-31T06:27:44.678Z,0.50
2022-12-31T06:30:11.670Z,0.60
2022-12-31T06:32:39.274Z,0.73
2022-12-31T06:35:06.556Z,0.60
2022-12-31T06:37:33.022Z,0.77
2022-12-31T06:40:00.355Z,0.73
2022-12-31T06:42:30.910Z,0.70
2022-12-31T06:44:58.486Z,0.65
2022-12-31T06:47:25.173Z,0.40
2022-12-31T06:49:52.043Z,0.45
2022-12-31T06:52:18.605Z,0.60
2022-12-31T06:54:45.392Z,0.50
2022-12-31T06:57:12.036Z,0.40
2022-12-31T06:59:38.686Z,0.50
2022-12-31T07:02:29.776Z,0.50
2022-12-31T07:05:24.121Z,0.60
2022-12-31T07:08:32.335Z,0.70
2022-12-31T07:11:03.889Z,0.90
2022-12-31T07:13:52.175Z,0.68
2022-12-31T07:16:39.857Z,0.70
2022-12-31T07:19:13.198Z,0.40
2022-12-31T07:21:41.645Z,0.47
2022-12-31T07:24:09.810Z,0.60
2022-12-31T07:26:57.021Z,0.80
2022-12-31T07:30:01.859Z,0.68
2022-12-31T07:32:28.402Z,0.73
2022-12-31T07:35:14.804Z,0.65
2022-12-31T07:37:59.187Z,0.57
2022-12-31T07:40:53.987Z,0.60
2022-12-31T07:43:34.371Z,0.63
2022-12-31T07:46:39.005Z,0.70
2022-12-31T07:49:11.457Z,0.82
2022-12-31T07:51:38.544Z,0.60
2022-12-31T07:54:10.187Z,0.50
2022-12-31T07:56:40.172Z,0.52
2022-12-31T07:59:31.711Z,0.52
2022-12-31T08:02:28.747Z,0.60
2022-12-31T08:05:15.909Z,0.85
2022-12-31T08:08:18.809Z,0.70
2022-12-31T08:10:59.610Z,0.75
2022-12-31T08:13:27.217Z,1.00
2022-12-31T08:15:53.904Z,0.55
2022-12-31T08:18:20.554Z,0.60
2022-12-31T08:21:04.272Z,0.70
2022-12-31T08:26:35.146Z,0.70
2022-12-31T08:29:06.680Z,0.77
2022-12-31T08:32:01.323Z,0.80
2022-12-31T08:34:46.012Z,0.70
2022-12-31T08:37:31.064Z,0.60
2022-12-31T08:40:11.085Z,0.65
2022-12-31T08:43:15.422Z,0.90
2022-12-31T08:45:48.579Z,0.50
2022-12-31T08:48:30.764Z,0.90
2022-12-31T08:50:57.591Z,0.90
2022-12-31T08:53:24.324Z,0.60
2022-12-31T08:55:58.726Z,0.60
2022-12-31T08:58:40.087Z,0.60
2022-12-31T09:01:08.303Z,0.77
2022-12-31T09:04:37.100Z,0.68
2022-12-31T09:07:04.953Z,0.88
2022-12-31T09:09:57.228Z,0.68
2022-12-31T09:12:35.277Z,0.80
2022-12-31T09:15:29.254Z,0.70
2022-12-31T09:17:56.018Z,0.50
2022-12-31T09:20:36.325Z,0.90
2022-12-31T09:23:08.928Z,0.82
2022-12-31T09:25:51.057Z,1.50
2022-12-31T09:28:47.021Z,0.68
2022-12-31T09:31:21.622Z,0.73
2022-12-31T09:33:58.664Z,0.80
2022-12-31T09:36:41.378Z,0.75
2022-12-31T09:39:26.078Z,0.70
2022-12-31T09:42:12.453Z,0.75
2022-12-31T09:45:18.539Z,1.00
2022-12-31T09:48:19.192Z,0.80
2022-12-31T09:51:04.394Z,0.85
2022-12-31T09:53:42.977Z,0.82
2022-12-31T09:56:17.198Z,0.70
2022-12-31T09:58:46.395Z,0.90
2022-12-31T10:01:26.523Z,1.23
2022-12-31T10:04:27.067Z,0.77
2022-12-31T10:07:05.546Z,1.05
2022-12-31T10:09:56.335Z,0.80
2022-12-31T10:12:43.462Z,0.93
2022-12-31T10:15:18.788Z,0.90
2022-12-31T10:18:19.327Z,0.80
2022-12-31T10:21:33.924Z,0.70
2022-12-31T10:24:03.032Z,0.75
2022-12-31T10:26:53.344Z,0.88
2022-12-31T10:29:35.000Z,1.10
2022-12-31T10:32:07.586Z,1.00
2022-12-31T10:35:07.801Z,0.85
2022-12-31T10:37:44.399Z,1.15
2022-12-31T10:40:32.341Z,0.98
2022-12-31T10:43:20.055Z,0.73
2022-12-31T10:46:22.913Z,0.90
2022-12-31T10:49:11.107Z,1.60
2022-12-31T10:51:55.871Z,0.93
2022-12-31T10:54:38.689Z,1.15
2022-12-31T10:57:16.853Z,1.08
2022-12-31T11:00:07.511Z,1.00
2022-12-31T11:03:02.475Z,1.00
2022-12-31T11:06:04.744Z,1.10
2022-12-31T11:09:03.358Z,1.08
2022-12-31T11:11:40.856Z,1.00
2022-12-31T11:14:44.963Z,1.25
2022-12-31T11:19:49.663Z,0.90
2022-12-31T11:22:29.360Z,0.85
2022-12-31T11:25:12.610Z,1.20
2022-12-31T11:28:03.117Z,0.90
2022-12-31T11:30:48.538Z,1.20
2022-12-31T11:33:36.957Z,1.23
2022-12-31T11:36:28.488Z,1.38
2022-12-31T11:39:16.280Z,0.90
2022-12-31T11:41:49.286Z,1.17
2022-12-31T11:44:43.046Z,1.10
2022-12-31T11:47:56.544Z,1.15
2022-12-31T11:50:50.581Z,1.10
2022-12-31T11:53:32.189Z,1.00
2022-12-31T11:56:07.733Z,1.17
2022-12-31T11:58:34.513Z,1.20
2022-12-31T12:01:11.405Z,0.90
2022-12-31T12:03:43.008Z,1.90
2022-12-31T12:06:15.445Z,0.90
2022-12-31T12:08:42.870Z,0.93
2022-12-31T12:11:20.536Z,0.82
2022-12-31T12:13:47.502Z,1.05
2022-12-31T12:16:14.984Z,0.85
2022-12-31T12:19:01.337Z,0.82
2022-12-31T12:21:28.655Z,1.40
2022-12-31T12:24:04.372Z,1.42
2022-12-31T12:26:43.030Z,1.50
2022-12-31T12:29:31.376Z,1.30
2022-12-31T12:32:00.791Z,2.65
2022-12-31T12:34:29.585Z,1.98
2022-12-31T12:36:56.881Z,1.60
2022-12-31T12:39:26.785Z,1.40
2022-12-31T12:42:14.409Z,1.25
2022-12-31T12:44:41.965Z,1.00
2022-12-31T12:47:15.836Z,1.10
2022-12-31T12:49:47.334Z,1.00
2022-12-31T12:52:32.252Z,1.55
2022-12-31T12:55:08.437Z,1.40
2022-12-31T12:58:18.615Z,0.95
2022-12-31T13:01:10.867Z,1.27
2022-12-31T13:04:32.386Z,1.23
2022-12-31T13:07:19.432Z,1.17
2022-12-31T13:10:12.585Z,1.15
2022-12-31T13:13:23.276Z,1.10
2022-12-31T13:16:14.891Z,1.00
2022-12-31T13:19:09.959Z,1.20
2022-12-31T13:21:55.031Z,1.13
2022-12-31T13:24:46.921Z,1.13
2022-12-31T13:27:23.474Z,1.30
2022-12-31T13:29:52.236Z,1.33
2022-12-31T13:32:27.899Z,1.40
2022-12-31T13:34:58.687Z,0.90
2022-12-31T13:37:35.008Z,1.30
2022-12-31T13:40:06.274Z,1.13
2022-12-31T13:42:42.304Z,1.42
2022-12-31T13:45:24.725Z,1.20
2022-12-31T13:47:55.433Z,1.40
2022-12-31T13:50:28.187Z,1.10
2022-12-31T13:53:21.365Z,1.48
2022-12-31T13:56:21.866Z,1.80
2022-12-31T13:59:13.520Z,1.50
2022-12-31T14:01:53.062Z,1.70
2022-12-31T14:04:42.389Z,1.17
2022-12-31T14:07:20.391Z,1.48
2022-12-31T14:09:46.761Z,1.30
2022-12-31T14:12:30.145Z,1.35
2022-12-31T14:15:27.449Z,1.60
2022-12-31T14:18:32.090Z,1.50
2022-12-31T14:21:06.490Z,1.65
2022-12-31T14:23:50.915Z,1.73
2022-12-31T14:26:27.297Z,1.20
2022-12-31T14:29:03.911Z,1.65
2022-12-31T14:31:48.360Z,1.55
2022-12-31T14:34:36.314Z,1.58
2022-12-31T14:37:23.231Z,1.42
2022-12-31T14:40:23.587Z,1.67
2022-12-31T14:43:10.701Z,1.73
2022-12-31T14:45:52.363Z,1.85
2022-12-31T14:48:53.458Z,1.80
2022-12-31T14:51:20.076Z,2.08
2022-12-31T14:53:54.413Z,1.48
2022-12-31T14:56:40.249Z,1.58
2022-12-31T14:59:25.574Z,2.10
2022-12-31T15:01:52.964Z,1.98
2022-12-31T15:04:41.735Z,1.92
2022-12-31T15:07:20.704Z,1.90
2022-12-31T15:10:03.183Z,1.88
2022-12-31T15:12:48.133Z,1.80
2022-12-31T15:15:35.674Z,2.25
2022-12-31T15:18:31.639Z,2.40
2022-12-31T15:21:23.945Z,2.60
2022-12-31T15:23:50.525Z,2.20
2022-12-31T15:26:28.390Z,2.10
2022-12-31T15:29:07.029Z,1.90
2022-12-31T15:31:35.654Z,2.78
2022-12-31T15:34:07.732Z,2.15
2022-12-31T15:36:38.446Z,2.58
2022-12-31T15:39:10.673Z,2.58
2022-12-31T15:41:42.902Z,2.92
2022-12-31T15:44:28.523Z,3.13
2022-12-31T15:47:10.674Z,2.13
2022-12-31T15:49:42.866Z,2.60
2022-12-31T15:52:23.855Z,2.88
2022-12-31T15:54:54.635Z,2.58
2022-12-31T15:57:40.093Z,3.10
2022-12-31T16:00:24.700Z,2.55
2022-12-31T16:02:55.087Z,2.30
2022-12-31T16:05:25.281Z,2.67
2022-12-31T16:07:54.194Z,2.15
2022-12-31T16:10:25.313Z,1.90
2022-12-31T16:12:53.546Z,2.05
2022-12-31T16:15:23.193Z,2.00
2022-12-31T16:17:59.185Z,2.90
2022-12-31T16:20:30.375Z,2.13
2022-12-31T16:22:59.030Z,1.92
2022-12-31T16:25:31.206Z,1.90
2022-12-31T16:27:59.013Z,1.80
2022-12-31T16:30:30.810Z,2.03
2022-12-31T16:33:03.792Z,2.42
2022-12-31T16:35:33.154Z,2.25
2022-12-31T16:38:19.318Z,2.75
2022-12-31T16:41:07.175Z,2.10
2022-12-31T16:43:38.981Z,2.10
2022-12-31T16:46:10.808Z,3.30
2022-12-31T16:48:38.238Z,3.45
2022-12-31T16:51:05.359Z,2.88
2022-12-31T16:53:36.229Z,2.20
2022-12-31T16:56:08.930Z,2.38
2022-12-31T16:58:40.150Z,2.08
2022-12-31T17:01:18.138Z,2.00
2022-12-31T17:03:50.599Z,2.00
2022-12-31T17:06:18.826Z,2.03
2022-12-31T17:08:55.409Z,2.42
2022-12-31T17:11:31.764Z,2.17
2022-12-31T17:14:07.626Z,2.22
2022-12-31T17:17:02.270Z,1.88
2022-12-31T17:19:40.322Z,1.65
2022-12-31T17:22:34.399Z,1.75
2022-12-31T17:25:09.259Z,1.88
2022-12-31T17:27:36.639Z,2.25
2022-12-31T17:30:35.895Z,1.70
2022-12-31T17:33:26.760Z,1.85
2022-12-31T17:36:12.280Z,1.90
2022-12-31T17:38:38.977Z,1.80
2022-12-31T17:41:05.330Z,1.50
2022-12-31T17:43:41.229Z,1.88
2022-12-31T17:46:26.554Z,1.85
2022-12-31T17:48:58.188Z,1.38
2022-12-31T17:51:24.892Z,1.48
2022-12-31T17:53:51.433Z,2.30
2022-12-31T17:56:19.568Z,1.73
2022-12-31T17:58:52.398Z,1.90
2022-12-31T18:01:23.186Z,1.60
2022-12-31T18:03:50.137Z,1.70
2022-12-31T18:06:19.130Z,2.08
2022-12-31T18:08:45.712Z,1.60
2022-12-31T18:11:16.893Z,2.08
2022-12-31T18:13:43.338Z,2.03
2022-12-31T18:16:09.919Z,1.63
2022-12-31T18:18:39.734Z,1.70
2022-12-31T18:21:13.112Z,2.25
2022-12-31T18:26:19.585Z,2.38
2022-12-31T18:28:46.535Z,2.78
2022-12-31T18:31:22.214Z,3.25
2022-12-31T18:33:49.622Z,3.78
2022-12-31T18:36:17.841Z,2.30
2022-12-31T18:38:44.434Z,2.20
2022-12-31T18:41:17.525Z,2.88
2022-12-31T18:43:44.241Z,2.33
2022-12-31T18:46:13.581Z,2.88
2022-12-31T18:48:43.282Z,2.58
2022-12-31T18:51:14.950Z,3.92
2022-12-31T18:53:41.498Z,2.35
2022-12-31T18:56:20.037Z,2.70
2022-12-31T18:58:46.888Z,1.75
2022-12-31T19:01:28.873Z,1.63
2022-12-31T19:04:18.712Z,2.00
2022-12-31T19:06:48.705Z,2.90
2022-12-31T19:09:43.535Z,2.00
2022-12-31T19:12:03.250Z,1.85
2022-12-31T19:14:29.770Z,2.00
2022-12-31T19:16:58.418Z,2.53
2022-12-31T19:19:24.822Z,3.40
2022-12-31T19:21:51.212Z,1.95
2022-12-31T19:24:20.026Z,2.22
2022-12-31T19:26:46.907Z,2.65
2022-12-31T19:29:19.292Z,3.47
2022-12-31T19:31:45.782Z,3.25
2022-12-31T19:34:12.525Z,3.28
2022-12-31T19:36:43.843Z,3.80
2022-12-31T19:39:17.218Z,2.35
2022-12-31T19:41:44.029Z,2.28
2022-12-31T19:44:16.875Z,2.75
2022-12-31T19:46:44.351Z,2.63
2022-12-31T19:49:14.656Z,2.28
2022-12-31T19:51:41.849Z,2.60
2022-12-31T19:54:08.575Z,2.25
2022-12-31T19:56:35.152Z,2.25
2022-12-31T19:59:06.122Z,2.45
2022-12-31T20:01:32.669Z,2.53
2022-12-31T20:03:59.190Z,3.55
2022-12-31T20:06:25.584Z,4.35
2022-12-31T20:08:52.008Z,6.05
2022-12-31T20:11:20.957Z,4.47
2022-12-31T20:13:49.337Z,3.78
2022-12-31T20:16:18.413Z,3.30
2022-12-31T20:18:46.552Z,3.80
2022-12-31T20:21:17.717Z,4.55
2022-12-31T20:23:44.778Z,3.30
2022-12-31T20:26:12.236Z,3.83
2022-12-31T20:28:39.005Z,2.65
2022-12-31T20:31:11.345Z,2.97
2022-12-31T20:33:37.814Z,2.90
2022-12-31T20:36:06.223Z,2.30
2022-12-31T20:38:33.046Z,2.08
2022-12-31T20:41:12.200Z,2.20
2022-12-31T20:43:39.799Z,2.58
2022-12-31T20:46:15.248Z,2.40
2022-12-31T20:48:42.859Z,2.20
2022-12-31T20:51:09.251Z,2.42
2022-12-31T20:53:35.770Z,3.17
2022-12-31T20:56:07.020Z,3.17
2022-12-31T20:58:34.089Z,3.10
2022-12-31T21:01:00.766Z,4.38
2022-12-31T21:06:14.598Z,3.80
2022-12-31T21:08:41.440Z,3.15
2022-12-31T21:11:28.014Z,3.10
2022-12-31T21:13:56.476Z,2.67
2022-12-31T21:16:23.275Z,2.90
2022-12-31T21:18:49.757Z,2.40
2022-12-31T21:21:16.471Z,2.25
2022-12-31T21:23:42.854Z,2.50
2022-12-31T21:26:09.281Z,2.20
2022-12-31T21:28:35.985Z,2.38
2022-12-31T21:31:07.315Z,2.42
2022-12-31T21:33:34.280Z,3.03
2022-12-31T21:36:04.787Z,2.53
2022-12-31T21:38:31.750Z,2.13
2022-12-31T21:41:02.744Z,2.53
2022-12-31T21:43:29.418Z,2.22
2022-12-31T21:46:04.018Z,2.28
2022-12-31T21:48:30.761Z,2.38
2022-12-31T21:51:09.827Z,2.45
2022-12-31T21:53:37.336Z,2.67
2022-12-31T21:56:12.188Z,1.98
2022-12-31T21:58:39.658Z,2.35
2022-12-31T22:01:25.520Z,2.42
2022-12-31T22:03:52.347Z,2.50
2022-12-31T22:06:21.183Z,2.85
2022-12-31T22:08:53.750Z,2.92
2022-12-31T22:11:22.643Z,3.17
2022-12-31T22:13:50.289Z,5.80
2022-12-31T22:16:18.308Z,4.15
2022-12-31T22:18:44.760Z,3.00
2022-12-31T22:21:20.805Z,2.60
2022-12-31T22:23:49.957Z,2.47
2022-12-31T22:26:19.504Z,3.10
2022-12-31T22:28:46.776Z,2.50
2022-12-31T22:31:22.596Z,2.50
2022-12-31T22:33:49.410Z,3.25
2022-12-31T22:36:19.453Z,2.47
2022-12-31T22:38:46.727Z,2.58
2022-12-31T22:41:19.101Z,2.33
2022-12-31T22:43:48.611Z,2.50
2022-12-31T22:46:18.348Z,2.67
2022-12-31T22:48:45.581Z,2.80
2022-12-31T22:51:14.849Z,2.85
2022-12-31T22:53:43.191Z,3.00
2022-12-31T22:56:11.871Z,5.18
2022-12-31T22:58:39.013Z,4.38
2022-12-31T23:01:15.619Z,46.03
2022-12-31T23:03:42.248Z,60.05
2022-12-31T23:06:08.889Z,47.28
2022-12-31T23:08:35.345Z,43.45
2022-12-31T23:11:06.371Z,43.00
2022-12-31T23:14:00.194Z,66.00
2022-12-31T23:16:48.058Z,29.10
2022-12-31T23:19:34.402Z,46.33
2022-12-31T23:22:19.292Z,27.30
2022-12-31T23:24:45.731Z,25.90
2022-12-31T23:27:12.332Z,22.40
2022-12-31T23:29:46.015Z,17.85
2022-12-31T23:32:13.401Z,17.83
2022-12-31T23:34:39.787Z,18.63
2022-12-31T23:37:06.219Z,16.45
2022-12-31T23:39:32.643Z,16.80
2022-12-31T23:42:00.156Z,16.90
2022-12-31T23:44:28.434Z,10.52
2022-12-31T23:46:55.269Z,9.90
2022-12-31T23:49:22.921Z,9.95
2022-12-31T23:51:49.318Z,8.52
2022-12-31T23:54:15.825Z,7.85
2022-12-31T23:56:42.645Z,6.40
2022-12-31T23:59:10.640Z,6.38
